createdAt,value
2018-08-23T00:04:31.051Z,3.63
2018-08-23T00:09:44.134Z,5.80
2018-08-23T00:14:50.673Z,5.00
2018-08-23T00:19:59.997Z,4.70
2018-08-23T00:25:09.852Z,5.40
2018-08-23T00:30:19.629Z,3.87
2018-08-23T00:35:26.344Z,3.13
2018-08-23T00:40:37.224Z,5.37
2018-08-23T00:45:44.553Z,3.27
2018-08-23T00:50:53.753Z,2.93
2018-08-23T00:56:12.626Z,7.53
2018-08-23T01:01:18.757Z,3.43
2018-08-23T01:06:29.745Z,7.57
2018-08-23T01:11:36.372Z,5.90
2018-08-23T01:16:49.375Z,4.60
2018-08-23T01:21:57.017Z,6.57
2018-08-23T01:27:04.968Z,9.70
2018-08-23T01:32:19.774Z,3.67
2018-08-23T01:37:39.142Z,4.10
2018-08-23T01:42:46.972Z,9.70
2018-08-23T01:47:54.614Z,8.43
2018-08-23T01:53:02.011Z,4.10
2018-08-23T01:58:09.344Z,4.90
2018-08-23T02:03:16.037Z,7.00
2018-08-23T02:08:24.258Z,5.60
2018-08-23T02:13:30.314Z,5.47
2018-08-23T02:18:35.908Z,9.70
2018-08-23T02:23:48.125Z,10.10
2018-08-23T02:28:54.573Z,7.13
2018-08-23T02:34:01.571Z,5.13
2018-08-23T02:39:10.092Z,5.23
2018-08-23T02:44:16.272Z,5.93
2018-08-23T02:49:21.788Z,7.63
2018-08-23T02:54:28.351Z,4.77
2018-08-23T02:59:35.651Z,5.33
2018-08-23T03:04:42.527Z,4.87
2018-08-23T03:09:48.693Z,4.37
2018-08-23T03:14:55.345Z,4.10
2018-08-23T03:20:01.652Z,5.27
2018-08-23T03:25:08.665Z,7.13
2018-08-23T03:30:16.397Z,6.40
2018-08-23T03:35:22.231Z,10.70
2018-08-23T03:40:27.971Z,7.53
2018-08-23T03:45:34.128Z,11.43
2018-08-23T03:50:45.941Z,15.40
2018-08-23T03:56:04.844Z,11.00
2018-08-23T04:01:16.422Z,14.50
2018-08-23T04:06:32.429Z,21.20
2018-08-23T04:11:38.566Z,20.87
2018-08-23T04:16:44.759Z,23.87
2018-08-23T04:21:50.823Z,21.30
2018-08-23T04:26:57.261Z,22.70
2018-08-23T04:32:04.714Z,20.40
2018-08-23T04:37:11.639Z,18.90
2018-08-23T04:42:17.947Z,20.47
2018-08-23T04:47:24.602Z,20.90
2018-08-23T04:52:30.735Z,18.33
2018-08-23T04:57:37.066Z,28.60
2018-08-23T05:02:43.250Z,20.47
2018-08-23T05:07:49.818Z,19.90
2018-08-23T05:12:55.920Z,21.20
2018-08-23T05:18:02.018Z,22.43
2018-08-23T05:23:08.308Z,21.17
2018-08-23T05:28:19.097Z,25.17
2018-08-23T05:33:24.680Z,22.60
2018-08-23T05:38:30.375Z,20.67
2018-08-23T05:43:38.285Z,27.20
2018-08-23T05:48:46.533Z,19.43
2018-08-23T05:53:55.101Z,18.53
2018-08-23T05:59:06.266Z,18.40
2018-08-23T06:04:12.617Z,14.67
2018-08-23T06:09:17.871Z,17.67
2018-08-23T06:14:24.639Z,16.80
2018-08-23T06:19:31.540Z,15.87
2018-08-23T06:24:38.266Z,17.00
2018-08-23T06:29:45.278Z,11.73
2018-08-23T06:34:53.319Z,11.37
2018-08-23T06:39:59.794Z,8.67
2018-08-23T06:45:05.737Z,8.80
2018-08-23T06:50:11.687Z,10.30
2018-08-23T06:55:22.851Z,8.20
2018-08-23T07:00:29.250Z,9.90
2018-08-23T07:05:35.194Z,6.70
2018-08-23T07:10:40.718Z,9.30
2018-08-23T07:15:51.962Z,18.53
2018-08-23T07:20:57.704Z,8.33
2018-08-23T07:26:04.578Z,5.90
2018-08-23T07:31:10.589Z,8.77
2018-08-23T07:36:24.102Z,12.63
2018-08-23T07:41:27.963Z,10.10
2018-08-23T07:46:30.139Z,7.80
2018-08-23T07:51:35.955Z,9.97
2018-08-23T07:56:41.545Z,9.90
2018-08-23T08:01:47.191Z,14.40
2018-08-23T08:06:49.568Z,18.90
2018-08-23T08:11:59.580Z,16.10
2018-08-23T08:19:41.836Z,23.20
2018-08-23T08:24:46.751Z,21.17
2018-08-23T08:29:52.235Z,21.60
2018-08-23T08:34:59.926Z,24.63
2018-08-23T08:40:06.487Z,20.00
2018-08-23T08:45:13.274Z,21.20
2018-08-23T08:50:19.023Z,23.70
2018-08-23T08:55:24.493Z,23.50
2018-08-23T09:00:35.507Z,30.77
2018-08-23T09:05:41.248Z,26.73
2018-08-23T09:10:46.948Z,25.30
2018-08-23T09:15:52.681Z,27.43
2018-08-23T09:20:58.471Z,29.90
2018-08-23T09:26:04.213Z,36.30
2018-08-23T09:31:09.795Z,34.53
2018-08-23T09:36:15.403Z,34.43
2018-08-23T09:41:21.488Z,33.37
2018-08-23T09:46:25.656Z,31.20
2018-08-23T09:51:30.751Z,30.20
2018-08-23T09:56:36.221Z,41.90
2018-08-23T10:01:47.001Z,38.57
2018-08-23T10:07:03.065Z,45.43
2018-08-23T10:12:14.435Z,30.37
2018-08-23T10:17:26.226Z,38.27
2018-08-23T10:27:50.250Z,34.33
2018-08-23T10:32:55.948Z,30.37
2018-08-23T10:38:02.165Z,25.43
2018-08-23T10:43:08.825Z,23.20
2018-08-23T10:48:16.388Z,30.73
2018-08-23T10:53:22.193Z,24.43
2018-08-23T10:58:29.911Z,17.63
2018-08-23T11:03:35.280Z,16.60
2018-08-23T11:08:40.688Z,24.60
2018-08-23T11:13:47.568Z,25.20
2018-08-23T11:18:58.556Z,19.33
2018-08-23T11:24:04.454Z,20.60
2018-08-23T11:29:08.939Z,24.87
2018-08-23T11:34:12.906Z,20.80
2018-08-23T11:39:17.064Z,20.60
2018-08-23T11:44:21.253Z,23.83
2018-08-23T11:49:25.787Z,17.60
2018-08-23T11:54:29.937Z,18.07
2018-08-23T11:59:35.654Z,19.13
2018-08-23T12:04:40.950Z,20.33
2018-08-23T12:09:46.057Z,18.20
2018-08-23T12:14:56.428Z,22.17
2018-08-23T12:20:01.699Z,22.80
2018-08-23T12:25:07.514Z,21.87
2018-08-23T12:30:12.833Z,15.93
2018-08-23T12:35:18.225Z,14.50
2018-08-23T12:40:29.123Z,16.40
2018-08-23T12:45:39.483Z,15.57
2018-08-23T12:50:45.748Z,17.83
2018-08-23T12:55:48.287Z,20.97
2018-08-23T13:00:50.440Z,26.10
2018-08-23T13:05:52.589Z,17.47
2018-08-23T13:10:54.792Z,21.90
2018-08-23T13:15:56.935Z,14.30
2018-08-23T13:21:01.960Z,19.67
2018-08-23T13:26:06.814Z,17.00
2018-08-23T13:33:40.250Z,12.50
2018-08-23T13:38:45.990Z,16.30
2018-08-23T13:43:52.273Z,15.73
2018-08-23T13:48:58.156Z,16.17
2018-08-23T13:54:03.925Z,14.90
2018-08-23T13:59:10.791Z,17.03
2018-08-23T14:04:16.609Z,16.80
2018-08-23T14:09:23.493Z,18.37
2018-08-23T14:14:29.750Z,16.67
2018-08-23T14:19:35.447Z,14.83
2018-08-23T14:24:41.789Z,18.17
2018-08-23T14:29:47.671Z,18.33
2018-08-23T14:34:53.335Z,17.60
2018-08-23T14:39:58.707Z,14.50
2018-08-23T14:45:03.190Z,15.83
2018-08-23T14:50:05.861Z,18.07
2018-08-23T14:55:08.133Z,14.57
2018-08-23T15:00:12.777Z,11.53
2018-08-23T15:05:17.609Z,12.67
2018-08-23T15:10:22.424Z,15.70
2018-08-23T15:15:33.011Z,15.13
2018-08-23T15:20:37.914Z,10.63
2018-08-23T15:25:42.769Z,11.80
2018-08-23T15:30:47.894Z,12.63
2018-08-23T15:35:53.052Z,9.27
2018-08-23T15:40:57.675Z,9.40
2018-08-23T15:46:02.695Z,10.37
2018-08-23T15:51:08.427Z,10.77
2018-08-23T15:56:12.612Z,13.30
2018-08-23T16:01:16.022Z,10.93
2018-08-23T16:06:20.437Z,12.77
2018-08-23T16:11:26.129Z,14.27
2018-08-23T16:16:37.735Z,14.57
2018-08-23T16:21:42.911Z,12.30
2018-08-23T16:26:53.866Z,10.70
2018-08-23T16:31:58.247Z,12.47
2018-08-23T16:37:03.088Z,9.87
2018-08-23T16:42:07.644Z,10.43
2018-08-23T16:47:12.903Z,7.97
2018-08-23T16:52:18.029Z,9.10
2018-08-23T16:57:22.942Z,8.43
2018-08-23T17:02:27.511Z,8.57
2018-08-23T17:07:32.161Z,8.10
2018-08-23T17:12:36.903Z,7.83
2018-08-23T17:17:43.912Z,9.20
2018-08-23T17:22:47.599Z,9.90
2018-08-23T17:27:51.405Z,7.60
2018-08-23T17:32:55.269Z,12.20
2018-08-23T17:37:58.843Z,11.33
2018-08-23T17:43:01.750Z,12.33
2018-08-23T17:48:04.584Z,14.10
2018-08-23T17:53:08.496Z,11.23
2018-08-23T17:58:12.094Z,9.00
2018-08-23T18:03:15.900Z,8.53
2018-08-23T18:08:19.789Z,13.63
2018-08-23T18:13:23.705Z,11.53
2018-08-23T18:18:27.276Z,13.40
2018-08-23T18:23:31.289Z,12.50
2018-08-23T18:28:35.061Z,15.43
2018-08-23T18:33:37.435Z,14.73
2018-08-23T18:38:41.566Z,12.03
2018-08-23T18:43:46.786Z,14.80
2018-08-23T18:48:50.370Z,11.63
2018-08-23T18:53:55.499Z,10.90
2018-08-23T18:58:59.129Z,10.23
2018-08-23T19:04:03.440Z,13.83
2018-08-23T19:09:09.496Z,14.63
2018-08-23T19:14:14.008Z,11.77
2018-08-23T19:19:18.098Z,10.63
2018-08-23T19:24:23.104Z,11.00
2018-08-23T19:29:26.837Z,10.60
2018-08-23T19:34:31.316Z,12.40
2018-08-23T19:39:37.674Z,11.50
2018-08-23T19:44:49.768Z,11.17
2018-08-23T19:49:59.416Z,12.80
2018-08-23T19:55:06.053Z,11.50
2018-08-23T20:00:11.137Z,12.07
2018-08-23T20:05:13.851Z,18.83
2018-08-23T20:10:16.151Z,10.50
2018-08-23T20:15:23.017Z,10.90
2018-08-23T20:20:25.450Z,10.73
2018-08-23T20:25:31.350Z,10.73
2018-08-23T20:30:39.267Z,11.70
2018-08-23T20:35:46.032Z,11.93
2018-08-23T20:40:53.127Z,12.80
2018-08-23T20:46:00.784Z,13.20
2018-08-23T20:51:09.815Z,13.57
2018-08-23T20:56:15.714Z,15.73
2018-08-23T21:01:22.910Z,22.93
2018-08-23T21:06:29.621Z,16.10
2018-08-23T21:11:38.348Z,16.93
2018-08-23T21:16:44.265Z,17.13
2018-08-23T21:21:50.211Z,20.17
2018-08-23T21:26:56.170Z,19.03
2018-08-23T21:32:02.523Z,17.87
2018-08-23T21:37:08.930Z,18.20
2018-08-23T21:42:14.274Z,16.70
2018-08-23T21:47:19.522Z,16.57
2018-08-23T21:52:24.748Z,19.33
2018-08-23T21:57:30.947Z,21.70
2018-08-23T22:02:37.824Z,24.37
2018-08-23T22:07:44.124Z,22.17
2018-08-23T22:12:50.156Z,24.80
2018-08-23T22:17:57.110Z,25.93
2018-08-23T22:22:59.547Z,25.60
2018-08-23T22:28:01.948Z,23.83
2018-08-23T22:33:04.185Z,27.63
2018-08-23T22:38:12.826Z,25.47
2018-08-23T22:43:20.975Z,28.73
2018-08-23T22:48:28.949Z,24.80
2018-08-23T22:53:38.135Z,31.73
2018-08-23T22:58:40.876Z,27.70
2018-08-23T23:03:52.228Z,32.27
2018-08-23T23:09:01.882Z,34.87
2018-08-23T23:14:08.807Z,38.00
2018-08-23T23:19:14.162Z,31.43
2018-08-23T23:24:25.431Z,30.07
2018-08-23T23:29:31.003Z,27.37
2018-08-23T23:34:37.416Z,27.70
2018-08-23T23:39:43.173Z,30.20
2018-08-23T23:44:48.902Z,26.20
2018-08-23T23:49:54.416Z,25.83
2018-08-23T23:55:00.749Z,29.83
